Lintgen, Luxembourg
Current Conditions -  °F | °C
As of 2:20 PM on Sunday 21 Dec 2014 (Local Time) from ELLX Reporting Station
Broken Clouds Broken Clouds  
Wind Chill: 33°   Ceiling: 1100
Heat Index: 41°   Visibility: 6mi
Dew Point: 39°   Wind: 14mph
Humidity: 93%   Direction: 240°WSW
Pressure: 30.42"   Gusts: NA
Location:  49.72°N, 6.13°E
Report Text: ELLX 211320Z 24012KT 9999 BKN011 05/04 Q1030 NOSIG
Loading
Personal Weather Stations






























Interactive Weather Map New forecast layout! Learn more

10-Day Weather Forecast

Advertisements
Track Severe Weather on mobile